createdAt,value
2022-10-17T00:02:19.643Z,10.02
2022-10-17T00:04:46.711Z,9.57
2022-10-17T00:07:13.257Z,10.05
2022-10-17T00:09:42.940Z,10.13
2022-10-17T00:12:10.203Z,9.30
2022-10-17T00:14:37.536Z,9.32
2022-10-17T00:17:05.198Z,10.02
2022-10-17T00:19:31.841Z,9.82
2022-10-17T00:21:58.457Z,10.65
2022-10-17T00:24:25.106Z,9.75
2022-10-17T00:26:51.715Z,9.45
2022-10-17T00:29:19.199Z,9.77
2022-10-17T00:31:47.715Z,9.77
2022-10-17T00:34:14.366Z,9.73
2022-10-17T00:36:40.991Z,10.05
2022-10-17T00:39:07.691Z,9.20
2022-10-17T00:41:34.633Z,9.85
2022-10-17T00:44:26.995Z,10.55
2022-10-17T00:46:54.262Z,10.07
2022-10-17T00:49:23.241Z,10.20
2022-10-17T00:51:54.470Z,10.73
2022-10-17T00:54:25.513Z,10.75
2022-10-17T00:56:52.875Z,11.05
2022-10-17T00:59:21.921Z,11.00
2022-10-17T01:02:00.054Z,10.88
2022-10-17T01:04:26.671Z,11.30
2022-10-17T01:06:53.406Z,10.75
2022-10-17T01:09:20.484Z,11.00
2022-10-17T01:12:00.453Z,10.55
2022-10-17T01:15:01.164Z,11.68
2022-10-17T01:18:12.633Z,10.93
2022-10-17T01:21:17.891Z,11.00
2022-10-17T01:23:57.847Z,10.95
2022-10-17T01:26:58.911Z,11.57
2022-10-17T01:29:25.700Z,10.52
2022-10-17T01:31:58.642Z,11.93
2022-10-17T01:34:35.928Z,11.15
2022-10-17T01:37:04.742Z,12.38
2022-10-17T01:39:45.646Z,11.63
2022-10-17T01:42:45.081Z,11.57
2022-10-17T01:45:31.269Z,11.48
2022-10-17T01:48:07.565Z,11.45
2022-10-17T01:50:41.562Z,11.52
2022-10-17T01:53:14.645Z,11.82
2022-10-17T01:55:44.877Z,11.20
2022-10-17T01:58:23.252Z,11.15
2022-10-17T02:00:51.985Z,11.20
2022-10-17T02:03:21.003Z,10.95
2022-10-17T02:05:48.043Z,11.68
2022-10-17T02:08:24.468Z,11.35
2022-10-17T02:10:58.261Z,11.38
2022-10-17T02:13:37.570Z,10.57
2022-10-17T02:16:16.712Z,12.25
2022-10-17T02:19:01.498Z,10.52
2022-10-17T02:21:40.044Z,10.02
2022-10-17T02:24:36.018Z,10.85
2022-10-17T02:27:13.606Z,10.68
2022-10-17T02:30:20.193Z,10.38
2022-10-17T02:32:57.527Z,10.02
2022-10-17T02:35:30.255Z,10.45
2022-10-17T02:37:58.325Z,11.35
2022-10-17T02:40:27.853Z,10.27
2022-10-17T02:42:55.874Z,11.07
2022-10-17T02:45:26.656Z,11.43
2022-10-17T02:48:15.273Z,11.75
2022-10-17T02:51:12.025Z,11.13
2022-10-17T02:53:48.365Z,11.07
2022-10-17T02:56:19.569Z,10.77
2022-10-17T02:58:52.429Z,10.10
2022-10-17T03:01:19.900Z,11.52
2022-10-17T03:03:46.700Z,10.55
2022-10-17T03:06:13.540Z,11.52
2022-10-17T03:08:40.147Z,11.05
2022-10-17T03:11:07.228Z,11.68
2022-10-17T03:13:36.329Z,10.88
2022-10-17T03:16:06.594Z,10.83
2022-10-17T03:18:33.540Z,11.00
2022-10-17T03:21:02.552Z,10.30
2022-10-17T03:23:29.567Z,11.30
2022-10-17T03:25:56.238Z,11.73
2022-10-17T03:28:24.695Z,10.88
2022-10-17T03:30:51.319Z,11.57
2022-10-17T03:33:17.941Z,11.77
2022-10-17T03:35:45.056Z,12.00
2022-10-17T03:38:11.833Z,11.85
2022-10-17T03:40:38.838Z,12.15
2022-10-17T03:43:05.806Z,12.05
2022-10-17T03:45:32.799Z,11.70
2022-10-17T03:48:00.107Z,13.05
2022-10-17T03:50:26.817Z,12.25
2022-10-17T03:52:53.683Z,12.82
2022-10-17T03:55:20.349Z,12.20
2022-10-17T03:57:47.643Z,12.50
2022-10-17T04:00:16.619Z,10.95
2022-10-17T04:02:51.605Z,12.93
2022-10-17T04:05:19.327Z,12.23
2022-10-17T04:07:47.282Z,12.63
2022-10-17T04:10:15.837Z,12.25
2022-10-17T04:12:42.631Z,11.95
2022-10-17T04:15:09.990Z,11.70
2022-10-17T04:17:38.221Z,12.50
2022-10-17T04:20:07.153Z,11.70
2022-10-17T04:22:34.371Z,11.98
2022-10-17T04:25:01.289Z,11.88
2022-10-17T04:27:34.227Z,10.93
2022-10-17T04:30:01.099Z,10.73
2022-10-17T04:32:30.781Z,10.65
2022-10-17T04:35:02.209Z,11.23
2022-10-17T04:37:30.364Z,10.68
2022-10-17T04:39:58.083Z,10.70
2022-10-17T04:42:24.849Z,10.35
2022-10-17T04:44:53.946Z,9.50
2022-10-17T04:47:24.751Z,10.15
2022-10-17T04:49:52.872Z,10.60
2022-10-17T04:52:21.733Z,10.82
2022-10-17T04:54:49.978Z,9.95
2022-10-17T04:57:18.575Z,9.98
2022-10-17T04:59:54.170Z,9.52
2022-10-17T05:02:26.413Z,10.27
2022-10-17T05:04:53.228Z,10.20
2022-10-17T05:07:20.958Z,9.18
2022-10-17T05:09:56.540Z,9.18
2022-10-17T05:12:23.318Z,8.90
2022-10-17T05:14:49.937Z,8.90
2022-10-17T05:17:16.847Z,7.88
2022-10-17T05:19:44.033Z,9.95
2022-10-17T05:22:10.852Z,8.10
2022-10-17T05:24:37.540Z,7.38
2022-10-17T05:27:04.201Z,7.95
2022-10-17T05:29:33.176Z,7.97
2022-10-17T05:32:08.046Z,7.60
2022-10-17T05:34:35.526Z,7.00
2022-10-17T05:37:02.102Z,8.07
2022-10-17T05:39:28.995Z,7.78
2022-10-17T05:41:56.973Z,7.57
2022-10-17T05:44:23.801Z,6.88
2022-10-17T05:46:55.454Z,6.68
2022-10-17T05:49:33.286Z,7.18
2022-10-17T05:52:10.022Z,6.90
2022-10-17T05:54:50.792Z,6.00
2022-10-17T05:57:17.703Z,6.70
2022-10-17T05:59:44.437Z,6.88
2022-10-17T06:02:14.010Z,6.82
2022-10-17T06:04:45.451Z,6.18
2022-10-17T06:07:13.313Z,6.70
2022-10-17T06:09:40.722Z,5.95
2022-10-17T06:12:08.895Z,6.50
2022-10-17T06:14:35.911Z,5.80
2022-10-17T06:17:04.203Z,5.30
2022-10-17T06:19:31.150Z,6.10
2022-10-17T06:21:57.794Z,6.20
2022-10-17T06:24:26.548Z,6.25
2022-10-17T06:26:53.799Z,5.72
2022-10-17T06:29:21.544Z,5.60
2022-10-17T06:31:51.077Z,5.95
2022-10-17T06:34:19.052Z,5.80
2022-10-17T06:36:46.428Z,5.97
2022-10-17T06:39:13.752Z,5.80
2022-10-17T06:41:45.970Z,5.80
2022-10-17T06:44:17.921Z,5.28
2022-10-17T06:47:03.310Z,5.55
2022-10-17T06:49:30.057Z,5.05
2022-10-17T06:52:17.123Z,5.00
2022-10-17T06:55:00.551Z,5.03
2022-10-17T06:57:34.196Z,4.50
2022-10-17T07:00:39.258Z,6.25
2022-10-17T07:03:05.930Z,4.97
2022-10-17T07:05:32.790Z,6.13
2022-10-17T07:08:00.138Z,5.20
2022-10-17T07:10:27.095Z,5.28
2022-10-17T07:12:55.730Z,5.03
2022-10-17T07:15:22.526Z,4.53
2022-10-17T07:17:52.610Z,4.88
2022-10-17T07:20:20.417Z,4.55
2022-10-17T07:22:47.108Z,4.70
2022-10-17T07:25:14.621Z,4.75
2022-10-17T07:27:51.353Z,4.85
2022-10-17T07:30:19.307Z,4.40
2022-10-17T07:33:15.026Z,4.97
2022-10-17T07:35:42.105Z,5.40
2022-10-17T07:38:10.304Z,5.50
2022-10-17T07:40:37.391Z,5.50
2022-10-17T07:43:05.055Z,5.43
2022-10-17T07:45:32.227Z,5.30
2022-10-17T07:47:59.120Z,5.45
2022-10-17T07:50:26.501Z,5.07
2022-10-17T07:52:53.085Z,5.72
2022-10-17T07:55:19.725Z,5.70
2022-10-17T07:57:46.406Z,6.22
2022-10-17T08:00:13.189Z,6.03
2022-10-17T08:02:41.419Z,5.97
2022-10-17T08:05:08.401Z,6.93
2022-10-17T08:07:34.962Z,6.57
2022-10-17T08:10:01.949Z,6.43
2022-10-17T08:12:32.530Z,6.90
2022-10-17T08:15:00.909Z,6.47
2022-10-17T08:17:27.786Z,6.78
2022-10-17T08:19:54.937Z,7.03
2022-10-17T08:22:21.652Z,6.57
2022-10-17T08:24:48.336Z,6.78
2022-10-17T08:27:15.685Z,6.70
2022-10-17T08:29:42.298Z,7.00
2022-10-17T08:32:10.208Z,6.57
2022-10-17T08:34:37.124Z,6.97
2022-10-17T08:37:04.856Z,7.63
2022-10-17T08:39:32.051Z,7.07
2022-10-17T08:42:40.626Z,7.22
2022-10-17T08:45:21.360Z,7.45
2022-10-17T08:47:53.107Z,7.18
2022-10-17T08:50:41.302Z,7.65
2022-10-17T08:53:07.913Z,8.07
2022-10-17T08:55:45.841Z,8.05
2022-10-17T08:58:22.852Z,8.40
2022-10-17T09:00:54.248Z,8.05
2022-10-17T09:03:39.708Z,7.90
2022-10-17T09:06:25.273Z,8.13
2022-10-17T09:09:15.222Z,7.68
2022-10-17T09:12:03.837Z,7.55
2022-10-17T09:14:37.038Z,7.07
2022-10-17T09:17:22.269Z,7.78
2022-10-17T09:20:09.944Z,7.38
2022-10-17T09:22:49.980Z,7.00
2022-10-17T09:25:18.847Z,7.35
2022-10-17T09:28:12.532Z,6.60
2022-10-17T09:30:54.327Z,6.95
2022-10-17T09:33:35.345Z,6.88
2022-10-17T09:36:14.813Z,7.38
2022-10-17T09:38:44.756Z,7.25
2022-10-17T09:41:46.014Z,6.65
2022-10-17T09:44:29.251Z,6.32
2022-10-17T09:47:22.528Z,7.25
2022-10-17T09:49:52.713Z,6.93
2022-10-17T09:52:32.267Z,6.88
2022-10-17T09:55:22.503Z,6.32
2022-10-17T09:58:00.090Z,7.60
2022-10-17T10:00:34.037Z,7.70
2022-10-17T10:03:12.818Z,8.27
2022-10-17T10:05:40.763Z,7.85
2022-10-17T10:08:15.879Z,7.97
2022-10-17T10:10:43.671Z,8.20
2022-10-17T10:13:13.186Z,7.97
2022-10-17T10:15:41.364Z,7.18
2022-10-17T10:18:26.563Z,8.00
2022-10-17T10:21:20.202Z,7.70
2022-10-17T10:24:09.832Z,7.88
2022-10-17T10:26:43.813Z,7.68
2022-10-17T10:29:49.297Z,7.88
2022-10-17T10:35:08.701Z,8.30
2022-10-17T10:37:43.413Z,8.13
2022-10-17T10:40:20.639Z,8.38
2022-10-17T10:42:50.633Z,8.45
2022-10-17T10:45:42.802Z,9.00
2022-10-17T10:48:21.531Z,7.85
2022-10-17T10:50:59.417Z,7.65
2022-10-17T10:53:41.319Z,7.20
2022-10-17T10:56:20.495Z,7.00
2022-10-17T10:59:13.670Z,6.68
2022-10-17T11:01:56.537Z,7.20
2022-10-17T11:04:33.174Z,7.57
2022-10-17T11:07:13.499Z,7.45
2022-10-17T11:09:58.774Z,8.00
2022-10-17T11:12:30.667Z,8.05
2022-10-17T11:15:00.383Z,7.88
2022-10-17T11:17:51.346Z,7.97
2022-10-17T11:20:47.453Z,8.15
2022-10-17T11:23:24.033Z,8.10
2022-10-17T11:25:52.656Z,7.90
2022-10-17T11:28:22.972Z,8.80
2022-10-17T11:31:15.804Z,8.32
2022-10-17T11:33:59.773Z,8.70
2022-10-17T11:36:31.111Z,8.77
2022-10-17T11:39:02.340Z,7.78
2022-10-17T11:41:46.268Z,8.68
2022-10-17T11:44:33.997Z,8.23
2022-10-17T11:47:07.369Z,9.70
2022-10-17T11:52:56.108Z,8.10
2022-10-17T11:55:29.481Z,9.80
2022-10-17T11:58:13.840Z,9.80
2022-10-17T12:00:53.610Z,10.40
2022-10-17T12:03:32.588Z,9.27
2022-10-17T12:06:15.974Z,9.93
2022-10-17T12:09:00.846Z,9.07
2022-10-17T12:11:41.450Z,9.82
2022-10-17T12:14:38.998Z,10.18
2022-10-17T12:17:22.534Z,10.35
2022-10-17T12:19:49.370Z,11.02
2022-10-17T12:22:21.037Z,10.93
2022-10-17T12:24:59.781Z,11.20
2022-10-17T12:27:47.308Z,11.10
2022-10-17T12:30:24.149Z,10.95
2022-10-17T12:33:07.703Z,11.48
2022-10-17T12:35:37.537Z,10.95
2022-10-17T12:38:19.354Z,11.40
2022-10-17T12:40:50.631Z,11.00
2022-10-17T12:43:17.350Z,11.30
2022-10-17T12:46:00.846Z,11.07
2022-10-17T12:48:36.417Z,10.73
2022-10-17T12:54:16.347Z,10.65
2022-10-17T12:56:48.688Z,10.52
2022-10-17T12:59:25.694Z,10.35
2022-10-17T13:01:57.373Z,11.52
2022-10-17T13:04:25.896Z,11.27
2022-10-17T13:06:55.694Z,11.35
2022-10-17T13:09:29.682Z,11.10
2022-10-17T13:11:58.809Z,11.23
2022-10-17T13:14:26.764Z,11.18
2022-10-17T13:17:02.210Z,11.10
2022-10-17T13:19:47.335Z,10.55
2022-10-17T13:22:27.016Z,10.00
2022-10-17T13:25:09.861Z,11.18
2022-10-17T13:27:37.492Z,10.35
2022-10-17T13:30:31.234Z,10.07
2022-10-17T13:33:00.551Z,10.50
2022-10-17T13:35:58.732Z,9.27
2022-10-17T13:38:28.984Z,9.70
2022-10-17T13:41:05.799Z,9.02
2022-10-17T13:43:38.730Z,9.35
2022-10-17T13:46:32.556Z,8.90
2022-10-17T13:48:53.434Z,9.05
2022-10-17T13:51:20.282Z,7.78
2022-10-17T13:53:46.949Z,7.75
2022-10-17T13:56:28.015Z,9.07
2022-10-17T13:59:04.968Z,7.95
2022-10-17T14:01:34.861Z,8.30
2022-10-17T14:04:08.880Z,7.63
2022-10-17T14:06:46.159Z,7.72
2022-10-17T14:09:25.612Z,7.72
2022-10-17T14:12:01.544Z,7.60
2022-10-17T14:14:32.143Z,7.55
2022-10-17T14:17:22.344Z,7.75
2022-10-17T14:20:06.572Z,7.25
2022-10-17T14:22:39.964Z,8.40
2022-10-17T14:25:26.789Z,8.80
2022-10-17T14:28:09.563Z,8.23
2022-10-17T14:30:57.450Z,8.17
2022-10-17T14:33:29.564Z,8.43
2022-10-17T14:35:59.537Z,8.98
2022-10-17T14:38:27.630Z,8.02
2022-10-17T14:41:30.578Z,8.13
2022-10-17T14:44:01.995Z,8.05
2022-10-17T14:46:29.016Z,7.90
2022-10-17T14:49:03.460Z,7.38
2022-10-17T14:51:39.948Z,6.85
2022-10-17T14:54:25.898Z,7.63
2022-10-17T14:56:54.890Z,6.97
2022-10-17T14:59:52.097Z,7.75
2022-10-17T15:02:13.607Z,6.82
2022-10-17T15:04:40.392Z,6.68
2022-10-17T15:07:07.019Z,7.93
2022-10-17T15:09:33.711Z,6.95
2022-10-17T15:12:02.513Z,7.60
2022-10-17T15:14:29.428Z,8.00
2022-10-17T15:16:56.612Z,7.95
2022-10-17T15:19:23.380Z,7.97
2022-10-17T15:21:49.966Z,9.88
2022-10-17T15:24:16.478Z,8.45
2022-10-17T15:26:43.225Z,9.43
2022-10-17T15:29:15.963Z,9.48
2022-10-17T15:31:42.600Z,9.25
2022-10-17T15:34:09.399Z,9.43
2022-10-17T15:36:40.183Z,9.80
2022-10-17T15:39:07.158Z,10.15
2022-10-17T15:41:34.003Z,10.65
2022-10-17T15:44:00.771Z,27.05
2022-10-17T15:46:30.205Z,11.73
2022-10-17T15:49:01.292Z,13.25
2022-10-17T15:51:27.889Z,12.93
2022-10-17T15:53:54.519Z,21.35
2022-10-17T15:56:41.813Z,12.20
2022-10-17T15:59:14.720Z,12.88
2022-10-17T16:01:42.501Z,11.02
2022-10-17T16:04:15.160Z,16.05
2022-10-17T16:06:42.655Z,10.55
2022-10-17T16:09:10.035Z,9.70
2022-10-17T16:11:42.505Z,11.38
2022-10-17T16:14:15.845Z,9.38
2022-10-17T16:19:09.713Z,9.63
2022-10-17T16:21:39.031Z,9.35
2022-10-17T16:24:12.261Z,11.27
2022-10-17T16:26:40.381Z,12.00
2022-10-17T16:29:07.169Z,15.60
2022-10-17T16:31:36.293Z,11.02
2022-10-17T16:34:04.509Z,12.43
2022-10-17T16:36:31.335Z,12.10
2022-10-17T16:38:58.679Z,13.02
2022-10-17T16:41:34.257Z,12.65
2022-10-17T16:44:04.338Z,13.52
2022-10-17T16:46:32.205Z,17.70
2022-10-17T16:48:59.931Z,12.38
2022-10-17T16:51:26.751Z,12.27
2022-10-17T16:53:54.672Z,32.45
2022-10-17T16:56:23.102Z,18.13
2022-10-17T16:58:50.581Z,15.45
2022-10-17T17:01:23.206Z,20.10
2022-10-17T17:03:51.240Z,13.05
2022-10-17T17:06:21.260Z,21.75
2022-10-17T17:08:47.961Z,53.90
2022-10-17T17:11:17.060Z,55.03
2022-10-17T17:13:44.039Z,59.45
2022-10-17T17:16:13.473Z,60.92
2022-10-17T17:18:41.470Z,52.88
2022-10-17T17:21:10.285Z,41.58
2022-10-17T17:23:40.081Z,34.30
2022-10-17T17:26:10.867Z,30.80
2022-10-17T17:28:40.875Z,25.88
2022-10-17T17:31:13.180Z,22.30
2022-10-17T17:33:41.351Z,22.25
2022-10-17T17:36:10.409Z,20.65
2022-10-17T17:38:37.200Z,17.83
2022-10-17T17:41:04.212Z,15.73
2022-10-17T17:43:32.685Z,16.30
2022-10-17T17:46:02.518Z,25.58
2022-10-17T17:48:29.671Z,16.92
2022-10-17T17:50:56.733Z,15.30
2022-10-17T17:53:24.810Z,14.52
2022-10-17T17:56:06.250Z,14.48
2022-10-17T17:58:39.221Z,14.57
2022-10-17T18:01:13.201Z,14.80
2022-10-17T18:03:41.527Z,15.75
2022-10-17T18:06:08.739Z,15.10
2022-10-17T18:08:36.110Z,15.73
2022-10-17T18:11:03.968Z,16.48
2022-10-17T18:13:30.906Z,25.88
2022-10-17T18:15:59.533Z,15.82
2022-10-17T18:18:28.337Z,24.08
2022-10-17T18:20:55.191Z,23.17
2022-10-17T18:23:22.787Z,23.13
2022-10-17T18:26:00.941Z,17.30
2022-10-17T18:28:27.830Z,18.25
2022-10-17T18:30:54.705Z,18.25
2022-10-17T18:33:21.574Z,17.60
2022-10-17T18:35:48.368Z,37.25
2022-10-17T18:38:15.006Z,26.35
2022-10-17T18:40:41.550Z,20.77
2022-10-17T18:43:08.386Z,18.95
2022-10-17T18:45:35.013Z,18.52
2022-10-17T18:48:01.676Z,21.25
2022-10-17T18:50:28.410Z,20.55
2022-10-17T18:52:57.630Z,17.20
2022-10-17T18:55:31.742Z,15.55
2022-10-17T19:03:35.972Z,14.93
2022-10-17T19:06:04.561Z,16.15
2022-10-17T19:08:31.401Z,16.88
2022-10-17T19:10:57.994Z,15.60
2022-10-17T19:13:33.442Z,15.48
2022-10-17T19:16:30.151Z,15.43
2022-10-17T19:18:59.656Z,15.57
2022-10-17T19:21:26.380Z,14.82
2022-10-17T19:23:58.793Z,15.95
2022-10-17T19:26:26.778Z,15.63
2022-10-17T19:28:54.147Z,15.90
2022-10-17T19:31:26.996Z,15.38
2022-10-17T19:33:55.482Z,15.00
2022-10-17T19:36:27.472Z,17.10
2022-10-17T19:38:57.491Z,15.80
2022-10-17T19:41:24.511Z,16.50
2022-10-17T19:43:51.582Z,16.85
2022-10-17T19:46:20.754Z,16.33
2022-10-17T19:48:49.079Z,16.13
2022-10-17T19:51:17.221Z,16.55
2022-10-17T19:53:44.975Z,15.82
2022-10-17T19:56:12.290Z,16.92
2022-10-17T19:58:46.332Z,18.20
2022-10-17T20:01:20.250Z,17.70
2022-10-17T20:03:47.243Z,16.35
2022-10-17T20:06:14.464Z,18.58
2022-10-17T20:08:42.205Z,16.02
2022-10-17T20:11:12.121Z,17.08
2022-10-17T20:13:39.408Z,18.00
2022-10-17T20:16:08.634Z,16.40
2022-10-17T20:18:35.362Z,17.10
2022-10-17T20:21:05.071Z,15.70
2022-10-17T20:23:32.091Z,16.98
2022-10-17T20:26:13.251Z,17.05
2022-10-17T20:28:46.352Z,17.38
2022-10-17T20:31:13.637Z,16.80
2022-10-17T20:33:41.479Z,17.38
2022-10-17T20:36:11.296Z,16.65
2022-10-17T20:38:38.434Z,16.75
2022-10-17T20:41:07.244Z,16.35
2022-10-17T20:43:34.540Z,17.10
2022-10-17T20:46:08.691Z,17.58
2022-10-17T20:48:52.177Z,17.42
2022-10-17T20:51:19.439Z,17.23
2022-10-17T20:53:46.569Z,16.58
2022-10-17T20:56:21.856Z,16.92
2022-10-17T20:58:59.892Z,16.80
2022-10-17T21:01:28.209Z,16.98
2022-10-17T21:03:54.930Z,16.67
2022-10-17T21:06:21.828Z,16.38
2022-10-17T21:08:49.480Z,17.00
2022-10-17T21:11:17.818Z,15.88
2022-10-17T21:13:45.733Z,16.33
2022-10-17T21:16:19.231Z,15.77
2022-10-17T21:21:21.528Z,14.75
2022-10-17T21:23:50.408Z,16.98
2022-10-17T21:26:18.220Z,15.52
2022-10-17T21:28:46.242Z,15.43
2022-10-17T21:31:17.419Z,16.02
2022-10-17T21:33:48.668Z,16.58
2022-10-17T21:36:16.844Z,15.70
2022-10-17T21:38:45.755Z,15.32
2022-10-17T21:41:14.369Z,15.90
2022-10-17T21:43:41.813Z,15.93
2022-10-17T21:46:17.243Z,16.05
2022-10-17T21:48:45.514Z,16.17
2022-10-17T21:51:15.004Z,16.55
2022-10-17T21:53:42.437Z,16.63
2022-10-17T21:56:14.431Z,16.48
2022-10-17T21:58:42.055Z,16.55
2022-10-17T22:01:15.547Z,15.85
2022-10-17T22:03:46.810Z,17.38
2022-10-17T22:09:28.258Z,16.30
2022-10-17T22:11:56.667Z,17.08
2022-10-17T22:14:27.053Z,17.67
2022-10-17T22:16:54.365Z,16.95
2022-10-17T22:19:26.139Z,17.88
2022-10-17T22:21:53.055Z,18.02
2022-10-17T22:26:52.735Z,18.13
2022-10-17T22:29:19.939Z,18.00
2022-10-17T22:31:46.944Z,18.02
2022-10-17T22:34:15.487Z,17.77
2022-10-17T22:36:42.664Z,20.98
2022-10-17T22:39:09.866Z,16.92
2022-10-17T22:41:36.812Z,16.63
2022-10-17T22:44:03.554Z,16.88
2022-10-17T22:46:30.297Z,17.52
2022-10-17T22:48:56.945Z,17.20
2022-10-17T22:53:55.116Z,17.95
2022-10-17T22:56:22.811Z,17.73
2022-10-17T22:58:49.931Z,18.60
2022-10-17T23:01:21.581Z,18.33
2022-10-17T23:03:48.524Z,18.00
2022-10-17T23:06:15.328Z,16.63
2022-10-17T23:08:42.719Z,18.25
2022-10-17T23:11:10.291Z,17.92
2022-10-17T23:13:37.363Z,17.85
2022-10-17T23:16:04.131Z,17.83
2022-10-17T23:20:57.315Z,16.35
2022-10-17T23:23:24.056Z,18.50
2022-10-17T23:25:51.579Z,18.10
2022-10-17T23:28:18.279Z,17.85
2022-10-17T23:30:45.255Z,18.15
2022-10-17T23:33:13.343Z,18.55
2022-10-17T23:35:40.426Z,18.40
2022-10-17T23:38:07.303Z,17.60
2022-10-17T23:40:35.551Z,18.50
2022-10-17T23:43:02.910Z,17.83
2022-10-17T23:45:33.393Z,18.35
2022-10-17T23:48:04.858Z,18.27
2022-10-17T23:50:31.601Z,17.60
2022-10-17T23:52:58.205Z,16.75
2022-10-17T23:55:24.787Z,17.92
2022-10-17T23:57:51.337Z,17.33
